Time;durP1;ratioP1;P1;durP2;ratioP2;P2;SDS_P1;SDS_P2;PMS_P1;PMS_P2;Temp;Humidity;BMP_temperature;BMP_pressure;BME280_temperature;BME280_humidity;BME280_pressure;Samples;Min_cycle;Max_cycle;Signal;HPM_P1;HPM_P2
2023/06/12 00:02:02;;;;;;;6.83;6.13;;;;;;;19.07;41.40;101429.34;4855487;29;20476;-69
2023/06/12 00:04:31;;;;;;;6.30;5.80;;;;;;;19.11;41.20;101433.25;4852654;29;20530;-69
2023/06/12 00:07:01;;;;;;;8.37;6.60;;;;;;;18.99;41.88;101440.69;4852917;29;20834;-67
2023/06/12 00:09:31;;;;;;;9.03;5.93;;;;;;;18.90;41.59;101442.97;4852237;29;20721;-70
2023/06/12 00:12:00;;;;;;;7.50;6.80;;;;;;;18.91;41.62;101436.44;4852658;29;20807;-69
2023/06/12 00:14:31;;;;;;;8.23;7.43;;;;;;;18.85;41.84;101439.28;4852346;29;20444;-70
2023/06/12 00:17:02;;;;;;;8.53;5.90;;;;;;;18.80;42.33;101433.72;4854606;29;20533;-69
2023/06/12 00:19:31;;;;;;;9.20;7.47;;;;;;;18.69;42.38;101435.41;4851583;29;20854;-69
2023/06/12 00:22:01;;;;;;;12.50;7.23;;;;;;;18.55;42.92;101440.34;4850202;29;20508;-70
2023/06/12 00:24:30;;;;;;;6.83;6.03;;;;;;;18.45;43.20;101440.06;4856834;29;20799;-68
2023/06/12 00:26:59;;;;;;;9.70;6.50;;;;;;;18.49;43.12;101434.97;4851953;29;20516;-69
2023/06/12 00:29:28;;;;;;;10.93;5.47;;;;;;;18.40;43.37;101436.38;4859283;29;20473;-69
2023/06/12 00:31:57;;;;;;;6.43;5.90;;;;;;;18.36;43.15;101436.03;4856042;29;20773;-69
2023/06/12 00:34:27;;;;;;;9.20;7.20;;;;;;;18.29;43.43;101440.00;4853241;29;20866;-69
2023/06/12 00:36:57;;;;;;;9.67;6.30;;;;;;;18.19;43.77;101438.69;4853392;29;20480;-68
2023/06/12 00:39:26;;;;;;;7.57;5.90;;;;;;;18.23;43.42;101447.25;4850939;29;20914;-70
2023/06/12 00:41:56;;;;;;;7.57;6.23;;;;;;;18.16;43.55;101441.06;4851636;29;20786;-70
2023/06/12 00:44:25;;;;;;;6.80;6.10;;;;;;;18.18;43.62;101430.72;4855502;29;20625;-69
2023/06/12 00:46:55;;;;;;;6.73;5.63;;;;;;;18.16;43.68;101443.81;4855792;29;20832;-69
2023/06/12 00:49:25;;;;;;;8.20;5.77;;;;;;;18.06;43.68;101440.81;4855125;29;20426;-69
2023/06/12 00:51:56;;;;;;;7.20;5.97;;;;;;;18.02;43.73;101439.63;4854298;29;20892;-70
2023/06/12 00:54:25;;;;;;;8.83;6.47;;;;;;;17.95;43.99;101441.69;4851619;29;20462;-70
2023/06/12 00:56:56;;;;;;;7.37;5.47;;;;;;;17.88;44.18;101446.41;4856537;29;20889;-68
2023/06/12 00:59:25;;;;;;;8.47;6.17;;;;;;;17.83;44.47;101440.81;4857689;29;20837;-69
2023/06/12 01:01:54;;;;;;;8.00;7.20;;;;;;;17.72;44.66;101437.81;4855249;29;20451;-69
2023/06/12 01:04:24;;;;;;;10.30;6.13;;;;;;;17.72;44.91;101435.09;4848969;29;20571;-70
2023/06/12 01:07:00;;;;;;;7.17;5.77;;;;;;;17.65;45.17;101439.88;4855238;29;20458;-69
2023/06/12 01:09:39;;;;;;;7.40;5.03;;;;;;;17.61;45.24;101443.31;4854311;29;20567;-69
2023/06/12 01:12:12;;;;;;;7.00;6.30;;;;;;;17.58;45.38;101444.56;4849453;29;20427;-68
2023/06/12 01:14:46;;;;;;;6.20;5.60;;;;;;;17.59;45.21;101442.69;4849091;29;20555;-67
2023/06/12 01:17:16;;;;;;;7.73;6.30;;;;;;;17.51;45.42;101443.00;4856644;29;20475;-69
2023/06/12 01:19:46;;;;;;;6.80;5.20;;;;;;;17.41;45.37;101449.06;4859061;29;20841;-69
2023/06/12 01:22:22;;;;;;;8.20;6.30;;;;;;;17.29;45.62;101445.44;4851610;29;20495;-66
2023/06/12 01:25:32;;;;;;;8.80;5.90;;;;;;;17.28;45.59;101443.78;4854451;29;20456;-68
2023/06/12 01:28:12;;;;;;;6.57;5.50;;;;;;;17.18;45.58;101444.34;4849547;29;20525;-70
2023/06/12 01:31:08;;;;;;;7.53;6.07;;;;;;;17.06;45.76;101437.16;4857610;29;20428;-68
2023/06/12 01:33:41;;;;;;;6.50;5.90;;;;;;;17.01;45.94;101447.94;4858331;29;20547;-68
2023/06/12 01:36:15;;;;;;;6.43;5.37;;;;;;;17.09;45.62;101439.44;4854809;29;20544;-68
2023/06/12 01:38:47;;;;;;;6.90;5.67;;;;;;;17.01;45.72;101434.28;4858198;29;20420;-69
2023/06/12 01:41:17;;;;;;;7.40;5.73;;;;;;;16.91;45.98;101443.03;4859589;29;20475;-68
2023/06/12 01:43:46;;;;;;;7.23;5.93;;;;;;;16.87;45.87;101437.19;4858689;29;20446;-69
2023/06/12 01:46:15;;;;;;;11.13;5.60;;;;;;;16.92;45.44;101437.34;4858886;29;20465;-70
2023/06/12 01:48:46;;;;;;;5.53;5.00;;;;;;;16.85;45.39;101438.47;4858357;29;20469;-69
2023/06/12 01:51:15;;;;;;;7.80;6.27;;;;;;;16.88;45.37;101441.59;4862790;29;20416;-68
2023/06/12 01:53:44;;;;;;;6.23;5.60;;;;;;;16.85;45.60;101444.78;4855751;29;20465;-68
2023/06/12 01:56:17;;;;;;;10.60;6.33;;;;;;;16.85;45.57;101438.47;4855925;29;20506;-70
2023/06/12 01:58:46;;;;;;;6.30;5.70;;;;;;;16.93;45.05;101447.22;4859372;29;20801;-70
2023/06/12 02:01:29;;;;;;;6.00;5.40;;;;;;;16.89;45.33;101443.25;4858757;29;20457;-68
2023/06/12 02:04:00;;;;;;;7.13;6.17;;;;;;;16.85;46.07;101443.94;4855896;29;20451;-69
2023/06/12 02:06:32;;;;;;;7.07;5.73;;;;;;;16.73;46.57;101440.34;4856413;29;21004;-67
2023/06/12 02:09:01;;;;;;;6.10;5.37;;;;;;;16.61;47.24;101445.72;4858334;29;20453;-67
2023/06/12 02:11:32;;;;;;;7.20;6.57;;;;;;;16.55;47.55;101438.44;4856596;29;20428;-68
2023/06/12 02:14:01;;;;;;;6.60;6.03;;;;;;;16.39;48.31;101441.75;4857441;29;20445;-70
2023/06/12 02:16:30;;;;;;;7.83;5.90;;;;;;;16.36;48.39;101439.50;4863441;29;20445;-69
2023/06/12 02:19:00;;;;;;;7.87;7.00;;;;;;;16.40;48.60;101435.25;4857184;29;20877;-69
2023/06/12 02:21:30;;;;;;;6.97;5.90;;;;;;;16.31;48.66;101440.16;4853907;29;20553;-68
2023/06/12 02:23:59;;;;;;;6.97;6.37;;;;;;;16.21;49.23;101441.75;4862087;29;20943;-70
2023/06/12 02:26:29;;;;;;;6.83;6.13;;;;;;;16.16;49.11;101447.06;4856601;29;20458;-69
2023/06/12 02:29:09;;;;;;;8.07;5.90;;;;;;;16.18;49.33;101453.09;4858146;29;20975;-68
2023/06/12 02:31:41;;;;;;;9.83;6.70;;;;;;;16.05;49.70;101454.91;4854032;29;20547;-69
2023/06/12 02:34:13;;;;;;;7.50;6.30;;;;;;;16.08;49.46;101449.00;4858917;29;20495;-68
2023/06/12 02:36:43;;;;;;;8.47;6.77;;;;;;;15.96;49.71;101459.00;4856800;29;20766;-66
2023/06/12 02:39:17;;;;;;;6.97;6.30;;;;;;;15.95;49.84;101454.59;4846667;29;20432;-69
2023/06/12 02:41:49;;;;;;;7.30;6.10;;;;;;;15.91;49.83;101464.28;4857414;29;20447;-68
2023/06/12 02:44:19;;;;;;;6.57;5.97;;;;;;;15.86;49.90;101455.94;4854397;29;20465;-68
2023/06/12 02:46:54;;;;;;;6.30;5.70;;;;;;;15.83;49.82;101461.81;4857023;29;20496;-69
2023/06/12 02:49:32;;;;;;;8.23;6.30;;;;;;;15.85;49.65;101462.44;4853781;29;20432;-69
2023/06/12 02:52:01;;;;;;;7.53;6.17;;;;;;;15.84;49.77;101466.22;4862474;29;21868;-68
2023/06/12 02:54:32;;;;;;;6.60;5.93;;;;;;;15.80;50.33;101462.28;4860141;29;20432;-68
2023/06/12 02:57:03;;;;;;;7.93;6.30;;;;;;;15.88;50.16;101459.25;4853428;29;20446;-69
2023/06/12 02:59:32;;;;;;;14.40;6.17;;;;;;;15.74;50.81;101452.25;4859868;29;20442;-69
2023/06/12 03:02:10;;;;;;;7.40;6.70;;;;;;;15.74;51.05;101457.69;4855808;29;20495;-70
2023/06/12 03:04:45;;;;;;;8.47;6.80;;;;;;;15.75;51.53;101464.84;4847178;29;20497;-68
2023/06/12 03:07:16;;;;;;;6.83;6.03;;;;;;;15.67;51.78;101461.56;4857353;29;20442;-68
2023/06/12 03:09:46;;;;;;;9.40;6.50;;;;;;;15.71;51.43;101476.41;4860355;29;20419;-69
2023/06/12 03:12:15;;;;;;;8.23;6.33;;;;;;;15.76;51.11;101465.69;4854127;29;20903;-68
2023/06/12 03:14:45;;;;;;;8.40;6.50;;;;;;;15.71;50.88;101477.25;4850915;29;20420;-69
2023/06/12 03:17:14;;;;;;;7.67;6.30;;;;;;;15.73;50.42;101468.88;4855780;29;20471;-70
2023/06/12 03:19:45;;;;;;;7.33;6.50;;;;;;;15.72;50.42;101481.66;4852828;29;21094;-69
2023/06/12 03:22:14;;;;;;;9.30;5.60;;;;;;;15.73;50.24;101466.97;4859630;29;20956;-70
2023/06/12 03:24:44;;;;;;;7.73;6.93;;;;;;;15.75;49.82;101470.28;4859128;29;20444;-68
2023/06/12 03:27:14;;;;;;;6.17;5.57;;;;;;;15.78;49.43;101469.84;4855114;29;20622;-69
2023/06/12 03:29:45;;;;;;;6.73;5.60;;;;;;;15.74;49.59;101468.63;4853320;29;20439;-67
2023/06/12 03:32:14;;;;;;;6.33;5.70;;;;;;;15.85;49.19;101470.63;4862464;29;20419;-69
2023/06/12 03:34:54;;;;;;;6.57;5.90;;;;;;;16.15;48.06;101472.69;4857728;29;20790;-67
2023/06/12 03:37:28;;;;;;;8.57;6.13;;;;;;;16.61;46.98;101470.31;4856735;29;20451;-69
2023/06/12 03:40:01;;;;;;;7.80;6.53;;;;;;;17.79;45.44;101467.84;4856532;29;20864;-70
2023/06/12 03:42:33;;;;;;;6.83;6.07;;;;;;;19.09;41.91;101474.63;4860640;29;20547;-69
2023/06/12 03:45:02;;;;;;;12.03;6.97;;;;;;;20.04;39.57;101470.31;4863171;29;20434;-69
2023/06/12 03:47:31;;;;;;;11.20;7.33;;;;;;;20.43;38.42;101474.75;4855944;29;20476;-69
2023/06/12 03:50:02;;;;;;;7.90;7.10;;;;;;;20.90;37.49;101475.13;4858492;29;20856;-68
2023/06/12 03:52:31;;;;;;;7.20;6.20;;;;;;;21.28;36.75;101476.13;4850800;29;20458;-70
2023/06/12 03:55:02;;;;;;;11.07;6.77;;;;;;;21.69;36.38;101480.91;4858216;29;20449;-69
2023/06/12 03:57:31;;;;;;;8.63;6.77;;;;;;;22.19;35.21;101476.94;4856586;29;20852;-68
2023/06/12 04:00:04;;;;;;;8.60;6.37;;;;;;;21.96;35.32;101472.66;4855258;29;20496;-70
2023/06/12 04:02:44;;;;;;;9.17;8.33;;;;;;;21.93;35.55;101473.16;4857635;29;20450;-70
2023/06/12 04:05:20;;;;;;;7.17;6.57;;;;;;;21.96;35.18;101480.94;4857229;29;20423;-69
2023/06/12 04:07:50;;;;;;;9.00;6.20;;;;;;;22.39;34.40;101477.09;4855035;29;20538;-67
2023/06/12 04:10:20;;;;;;;6.90;6.30;;;;;;;22.66;33.77;101480.53;4855701;29;20498;-68
2023/06/12 04:12:49;;;;;;;7.77;6.97;;;;;;;22.86;33.88;101477.06;4856100;29;20442;-68
2023/06/12 04:15:19;;;;;;;7.17;6.20;;;;;;;22.75;33.79;101484.47;4857011;29;20960;-69
2023/06/12 04:17:48;;;;;;;7.37;5.70;;;;;;;22.88;33.57;101489.53;4852646;29;21041;-68
2023/06/12 04:20:19;;;;;;;7.10;6.40;;;;;;;23.66;32.33;101482.03;4850233;29;20561;-68
2023/06/12 04:22:49;;;;;;;7.53;6.50;;;;;;;23.70;32.25;101487.81;4859504;29;20474;-69
2023/06/12 04:25:19;;;;;;;5.77;5.17;;;;;;;24.09;31.70;101488.09;4853435;29;20433;-67
2023/06/12 04:27:50;;;;;;;7.30;6.00;;;;;;;24.24;31.38;101488.09;4858915;29;20494;-69
2023/06/12 04:30:21;;;;;;;6.63;5.90;;;;;;;24.13;31.36;101491.94;4852103;29;20422;-68
2023/06/12 04:32:53;;;;;;;6.80;5.93;;;;;;;24.20;31.46;101498.06;4865823;29;20468;-67
2023/06/12 04:35:24;;;;;;;6.70;5.93;;;;;;;23.79;31.65;101495.28;4851506;29;20424;-70
2023/06/12 04:37:53;;;;;;;7.47;5.23;;;;;;;24.20;31.64;101492.53;4853202;29;20479;-67
2023/06/12 04:40:24;;;;;;;8.77;5.50;;;;;;;24.11;31.41;101494.16;4858619;29;20469;-68
2023/06/12 04:42:59;;;;;;;8.83;7.07;;;;;;;24.69;30.66;101496.28;4852256;29;20994;-68
2023/06/12 04:45:32;;;;;;;8.17;5.70;;;;;;;23.89;31.58;101490.84;4854172;29;20861;-68
2023/06/12 04:48:02;;;;;;;7.30;4.83;;;;;;;23.86;31.45;101491.41;4853377;29;20452;-67
2023/06/12 04:50:33;;;;;;;10.70;5.33;;;;;;;23.80;32.13;101502.47;4854162;29;20444;-69
2023/06/12 04:53:02;;;;;;;7.43;5.30;;;;;;;24.06;31.21;101503.28;4861160;29;20908;-69
2023/06/12 04:55:31;;;;;;;8.47;5.73;;;;;;;24.34;31.10;101504.69;4852621;29;20471;-70
2023/06/12 04:58:01;;;;;;;9.17;6.30;;;;;;;23.37;32.30;101498.25;4858008;29;20444;-69
2023/06/12 05:00:31;;;;;;;16.10;10.50;;;;;;;24.35;31.47;101503.56;4858172;29;20483;-69
2023/06/12 05:03:00;;;;;;;11.47;6.53;;;;;;;25.30;30.70;101496.06;4859043;29;21109;-70
2023/06/12 05:05:30;;;;;;;6.37;5.77;;;;;;;25.27;30.22;101496.59;4856874;29;20415;-70
2023/06/12 05:08:00;;;;;;;7.07;5.03;;;;;;;25.38;30.03;101503.75;4859010;29;20452;-70
2023/06/12 05:10:31;;;;;;;9.63;5.30;;;;;;;25.32;29.69;101499.34;4861203;29;20483;-70
2023/06/12 05:13:02;;;;;;;5.83;5.20;;;;;;;25.62;29.70;101505.84;4854616;29;20425;-69
2023/06/12 05:15:32;;;;;;;9.47;5.93;;;;;;;25.32;29.78;101496.56;4856629;29;20451;-71
2023/06/12 05:18:01;;;;;;;5.93;5.33;;;;;;;26.47;28.51;101497.94;4861970;29;20427;-71
2023/06/12 05:20:32;;;;;;;6.20;4.90;;;;;;;26.08;28.91;101498.00;4860782;29;20506;-69
2023/06/12 05:23:03;;;;;;;8.53;5.23;;;;;;;26.40;28.62;101498.25;4860919;29;20847;-70
2023/06/12 05:25:32;;;;;;;7.00;5.60;;;;;;;26.20;28.67;101501.19;4860558;29;20475;-69
2023/06/12 05:28:03;;;;;;;10.57;7.00;;;;;;;26.22;28.78;101497.06;4865470;29;20452;-69
2023/06/12 05:30:33;;;;;;;7.47;4.67;;;;;;;26.04;28.71;101497.75;4859715;29;20458;-70
2023/06/12 05:33:05;;;;;;;6.90;5.43;;;;;;;27.01;27.81;101498.44;4857051;29;20415;-70
2023/06/12 05:35:35;;;;;;;5.60;4.50;;;;;;;26.67;28.10;101492.16;4883799;24;20565;-84
2023/06/12 05:38:07;;;;;;;6.83;4.60;;;;;;;23.73;31.84;101506.59;4872168;29;20459;-83
2023/06/12 05:40:36;;;;;;;6.53;4.90;;;;;;;22.20;34.11;101496.00;4867474;29;20462;-81
2023/06/12 05:43:05;;;;;;;11.87;5.53;;;;;;;21.38;35.60;101496.34;4868647;29;20451;-82
2023/06/12 05:45:35;;;;;;;7.43;5.40;;;;;;;20.50;37.00;101505.66;4865976;29;20561;-82
2023/06/12 05:48:05;;;;;;;8.33;6.83;;;;;;;20.33;37.85;101510.38;4863873;29;20426;-82
2023/06/12 05:50:35;;;;;;;5.60;4.93;;;;;;;20.37;37.77;101514.28;4870859;29;20461;-82
2023/06/12 05:53:10;;;;;;;6.33;5.20;;;;;;;20.19;37.63;101507.06;4876161;29;20403;-83
2023/06/12 05:55:39;;;;;;;5.73;5.23;;;;;;;20.08;38.03;101516.25;4881505;29;20480;-81
2023/06/12 05:58:08;;;;;;;5.80;5.20;;;;;;;20.24;37.88;101525.56;4886331;29;20460;-82
2023/06/12 06:00:38;;;;;;;5.70;4.77;;;;;;;20.20;38.17;101518.91;4881990;29;20498;-81
2023/06/12 06:03:19;;;;;;;6.10;5.20;;;;;;;20.36;38.25;101521.69;4884606;29;20473;-81
2023/06/12 06:05:49;;;;;;;6.67;5.17;;;;;;;20.47;38.13;101519.09;4882316;29;20544;-81
2023/06/12 06:08:20;;;;;;;7.43;4.87;;;;;;;20.61;38.42;101514.88;4878862;29;20414;-81
2023/06/12 06:10:49;;;;;;;6.40;5.27;;;;;;;20.78;37.61;101510.16;4883940;29;20438;-81
2023/06/12 06:13:20;;;;;;;7.70;5.07;;;;;;;20.75;37.91;101510.69;4875474;29;20510;-81
2023/06/12 06:15:50;;;;;;;9.50;5.07;;;;;;;20.64;38.12;101517.13;4875216;29;20481;-80
2023/06/12 06:18:20;;;;;;;6.33;4.80;;;;;;;20.72;37.86;101520.25;4877879;29;20411;-81
2023/06/12 06:20:49;;;;;;;11.47;5.43;;;;;;;20.66;38.44;101517.72;4865867;29;20417;-81
2023/06/12 06:23:20;;;;;;;8.07;5.67;;;;;;;20.60;38.33;101518.72;4878084;29;20482;-80
2023/06/12 06:25:49;;;;;;;6.20;5.60;;;;;;;20.74;38.33;101514.50;4882215;29;20533;-81
2023/06/12 06:28:19;;;;;;;8.37;5.33;;;;;;;20.82;38.34;101514.06;4865974;29;20419;-82
2023/06/12 06:30:48;;;;;;;7.27;5.00;;;;;;;20.91;38.51;101520.81;4867759;29;21009;-81
2023/06/12 06:33:18;;;;;;;12.13;5.57;;;;;;;20.97;38.16;101533.50;4863150;29;20457;-80
2023/06/12 06:35:48;;;;;;;6.60;5.43;;;;;;;21.14;38.31;101526.06;4863100;29;20480;-81
2023/06/12 06:38:21;;;;;;;8.27;5.23;;;;;;;21.35;38.18;101520.81;4863112;29;20448;-81
2023/06/12 06:40:52;;;;;;;6.43;5.50;;;;;;;21.20;37.87;101524.22;4864800;29;20423;-81
2023/06/12 06:43:22;;;;;;;5.50;4.90;;;;;;;21.13;38.40;101518.91;4866110;29;20499;-81
2023/06/12 06:45:57;;;;;;;8.20;5.50;;;;;;;21.31;38.41;101519.63;4867342;29;21025;-81
2023/06/12 06:48:28;;;;;;;5.83;4.87;;;;;;;21.59;37.92;101527.69;4870359;29;20483;-82
2023/06/12 06:50:58;;;;;;;7.10;5.20;;;;;;;21.66;37.40;101534.63;4866248;29;20448;-81
2023/06/12 06:53:27;;;;;;;7.23;5.60;;;;;;;21.63;37.97;101531.56;4877979;29;20462;-80
2023/06/12 06:55:59;;;;;;;7.57;6.20;;;;;;;21.86;37.38;101524.88;4878767;29;20438;-81
2023/06/12 06:58:28;;;;;;;7.20;5.20;;;;;;;21.76;37.44;101527.53;4867149;29;20468;-81
2023/06/12 07:00:58;;;;;;;8.20;6.40;;;;;;;21.87;37.89;101521.88;4867828;29;20444;-81
2023/06/12 07:03:27;;;;;;;6.00;5.40;;;;;;;21.86;37.24;101534.00;4880627;29;20515;-82
2023/06/12 07:05:57;;;;;;;6.33;5.20;;;;;;;21.96;37.66;101525.84;4876808;29;20447;-81
2023/06/12 07:08:27;;;;;;;6.83;5.93;;;;;;;22.12;37.28;101531.50;4880740;29;20415;-81
2023/06/12 07:10:57;;;;;;;6.70;5.43;;;;;;;22.36;36.95;101528.09;4877023;29;20426;-82
2023/06/12 07:13:26;;;;;;;7.93;5.50;;;;;;;22.40;36.65;101534.75;4877008;29;20444;-81
2023/06/12 07:15:57;;;;;;;8.07;5.47;;;;;;;22.46;36.08;101533.66;4874707;29;20938;-82
2023/06/12 07:18:30;;;;;;;6.30;5.67;;;;;;;22.38;36.90;101536.91;4867079;29;20516;-82
2023/06/12 07:21:00;;;;;;;5.40;4.80;;;;;;;22.42;36.46;101538.03;4866853;29;20471;-80
2023/06/12 07:23:29;;;;;;;6.73;5.60;;;;;;;22.43;36.72;101539.72;4870578;29;20443;-81
2023/06/12 07:25:59;;;;;;;11.87;5.10;;;;;;;22.54;36.53;101537.84;4872654;29;20447;-81
2023/06/12 07:28:49;;;;;;;8.50;5.43;;;;;;;22.66;35.23;101530.19;4862709;29;20860;-81
2023/06/12 07:31:18;;;;;;;8.57;5.90;;;;;;;22.89;36.02;101538.09;4868305;29;20431;-81
2023/06/12 07:33:48;;;;;;;8.83;5.73;;;;;;;22.91;36.54;101546.91;4864738;29;20508;-81
2023/06/12 07:36:17;;;;;;;6.60;4.33;;;;;;;23.00;34.05;101540.88;4873726;29;20445;-81
2023/06/12 07:38:46;;;;;;;6.57;5.80;;;;;;;22.94;34.13;101540.88;4878782;29;20445;-81
2023/06/12 07:41:18;;;;;;;7.57;5.33;;;;;;;23.11;34.01;101531.56;4870673;29;20445;-82
2023/06/12 07:43:47;;;;;;;7.10;4.97;;;;;;;23.28;33.20;101540.47;4866142;29;20476;-82
2023/06/12 07:46:29;;;;;;;7.00;5.17;;;;;;;23.49;33.56;101533.91;5140675;27;20551;-68
2023/06/12 07:48:58;;;;;;;6.37;4.93;;;;;;;23.55;32.76;101538.34;5110086;28;20429;-67
2023/06/12 07:51:29;;;;;;;8.00;5.10;;;;;;;23.67;32.28;101535.34;5091673;28;20498;-67
2023/06/12 07:53:58;;;;;;;5.17;4.67;;;;;;;23.46;32.19;101537.22;5107915;28;20986;-68
2023/06/12 07:56:28;;;;;;;6.07;4.80;;;;;;;23.56;32.26;101541.94;5087338;28;20469;-68
2023/06/12 07:59:05;;;;;;;5.07;4.60;;;;;;;23.67;32.44;101533.38;5089713;28;20427;-67
2023/06/12 08:01:37;;;;;;;6.43;4.90;;;;;;;23.89;32.24;101529.56;5086879;28;20481;-67
2023/06/12 08:04:10;;;;;;;6.67;5.37;;;;;;;24.04;32.03;101526.78;5113563;28;20808;-68
2023/06/12 08:06:42;;;;;;;5.67;4.80;;;;;;;24.18;31.73;101526.00;5088350;28;20833;-67
2023/06/12 08:09:11;;;;;;;5.47;4.63;;;;;;;24.08;31.19;101528.72;5110115;28;21038;-67
2023/06/12 08:11:41;;;;;;;4.80;4.40;;;;;;;24.05;29.63;101529.28;5117818;28;20433;-67
2023/06/12 08:14:11;;;;;;;6.10;4.50;;;;;;;24.10;30.40;101522.94;5084485;28;20420;-68
2023/06/12 08:16:45;;;;;;;6.37;5.10;;;;;;;24.28;30.27;101519.63;5117244;28;20560;-68
2023/06/12 08:19:14;;;;;;;5.77;5.00;;;;;;;24.29;30.31;101517.69;5105740;28;20527;-68
2023/06/12 08:21:43;;;;;;;7.20;5.20;;;;;;;24.31;29.45;101524.59;5101982;28;20802;-67
2023/06/12 08:24:13;;;;;;;6.40;5.77;;;;;;;24.45;29.77;101517.38;5119632;28;20428;-68
2023/06/12 08:26:42;;;;;;;6.80;4.30;;;;;;;24.62;29.06;101506.00;5109385;28;20432;-68
2023/06/12 08:29:12;;;;;;;4.90;4.30;;;;;;;24.51;28.37;101505.19;5101165;28;20806;-67
2023/06/12 08:31:44;;;;;;;5.30;4.70;;;;;;;24.80;28.41;101512.84;5101810;28;20447;-67
2023/06/12 08:34:13;;;;;;;12.73;4.80;;;;;;;25.02;28.09;101497.59;5111814;28;20430;-67
2023/06/12 08:36:43;;;;;;;5.97;5.07;;;;;;;25.13;27.79;101517.72;5093402;28;20532;-66
2023/06/12 08:39:13;;;;;;;6.50;5.73;;;;;;;24.79;28.34;101514.78;5110738;28;20433;-67
2023/06/12 08:41:59;;;;;;;5.97;4.23;;;;;;;24.99;28.29;101516.69;5089110;28;20449;-67
2023/06/12 08:44:29;;;;;;;10.47;4.53;;;;;;;24.80;28.31;101524.75;5096523;28;20448;-67
2023/06/12 08:47:02;;;;;;;5.37;3.93;;;;;;;24.63;28.87;101513.19;5092750;28;20464;-68
2023/06/12 08:49:32;;;;;;;9.10;5.40;;;;;;;24.75;28.72;101518.41;5108760;28;20436;-67
2023/06/12 08:52:01;;;;;;;5.40;4.47;;;;;;;24.79;28.64;101516.72;5108638;28;20387;-67
2023/06/12 08:54:34;;;;;;;8.83;5.67;;;;;;;24.79;28.60;101505.66;5111700;28;20446;-68
2023/06/12 08:57:04;;;;;;;6.57;5.60;;;;;;;24.64;28.87;101510.13;5098373;28;20449;-67
2023/06/12 08:59:34;;;;;;;4.90;4.40;;;;;;;24.56;28.76;101507.94;5099614;28;20449;-67
2023/06/12 09:02:04;;;;;;;6.07;5.10;;;;;;;24.63;28.84;101508.50;5094419;28;20421;-67
2023/06/12 09:04:54;;;;;;;6.50;5.20;;;;;;;24.60;28.51;101520.09;5094036;28;20404;-66
2023/06/12 09:07:25;;;;;;;5.30;4.80;;;;;;;24.83;28.31;101506.78;5095881;28;20829;-67
2023/06/12 09:09:55;;;;;;;5.67;4.73;;;;;;;24.73;28.46;101501.28;5090636;28;20922;-67
2023/06/12 09:12:43;;;;;;;7.23;4.07;;;;;;;25.36;28.26;101505.16;5076941;28;20443;-67
2023/06/12 09:15:18;;;;;;;5.80;5.27;;;;;;;25.55;27.87;101514.50;5090688;28;20936;-67
2023/06/12 09:17:50;;;;;;;6.23;5.10;;;;;;;25.71;27.61;101512.44;5103683;28;20802;-68
2023/06/12 09:20:26;;;;;;;5.67;5.17;;;;;;;25.60;27.86;101505.31;5087144;28;20909;-68
2023/06/12 09:23:11;;;;;;;6.50;5.70;;;;;;;25.68;28.54;101501.94;5087230;28;20518;-68
2023/06/12 09:25:42;;;;;;;6.40;5.70;;;;;;;26.07;27.88;101483.31;5078551;28;20456;-67
2023/06/12 09:28:36;;;;;;;6.00;5.27;;;;;;;25.68;28.21;101501.94;5092390;28;20483;-68
2023/06/12 09:31:06;;;;;;;7.03;4.73;;;;;;;25.48;28.57;101492.59;5095662;28;20395;-68
2023/06/12 09:33:39;;;;;;;5.87;5.23;;;;;;;25.53;28.63;101500.88;5090308;28;20832;-68
2023/06/12 09:36:11;;;;;;;7.73;6.07;;;;;;;25.86;28.08;101506.75;5092798;28;20540;-67
2023/06/12 09:38:40;;;;;;;5.43;4.80;;;;;;;25.74;28.31;101500.78;5096874;28;20417;-68
2023/06/12 09:41:10;;;;;;;5.70;5.10;;;;;;;26.08;28.26;101496.06;5100209;28;20431;-68
2023/06/12 09:43:40;;;;;;;5.80;4.60;;;;;;;26.04;27.73;101508.84;5101215;28;20425;-69
2023/06/12 09:46:10;;;;;;;5.43;4.93;;;;;;;25.83;28.21;101499.03;5099936;28;20479;-67
2023/06/12 09:48:41;;;;;;;6.30;5.10;;;;;;;25.76;28.30;101498.53;5093236;28;20433;-67
2023/06/12 09:51:12;;;;;;;6.00;5.40;;;;;;;25.46;29.12;101492.06;5102927;28;20816;-68
2023/06/12 09:53:41;;;;;;;4.97;4.50;;;;;;;25.15;29.87;101496.13;5102194;28;20818;-67
2023/06/12 09:56:12;;;;;;;6.60;5.00;;;;;;;25.50;29.63;101487.63;5102838;28;20468;-69
2023/06/12 09:58:47;;;;;;;5.70;5.20;;;;;;;25.87;29.12;101494.56;5100963;28;20432;-67
2023/06/12 10:01:19;;;;;;;7.30;5.33;;;;;;;25.26;28.95;101488.59;5087546;28;20923;-69
2023/06/12 10:03:52;;;;;;;6.57;5.70;;;;;;;24.69;29.65;101490.75;5106706;28;20474;-67
2023/06/12 10:06:26;;;;;;;10.30;5.70;;;;;;;24.39;30.33;101482.56;5097670;28;20469;-66
2023/06/12 10:08:56;;;;;;;6.30;5.67;;;;;;;24.51;30.23;101477.53;5102008;28;20436;-67
2023/06/12 10:11:26;;;;;;;6.97;5.97;;;;;;;24.94;30.24;101475.19;5093467;28;20783;-67
2023/06/12 10:13:56;;;;;;;6.57;5.17;;;;;;;25.55;30.19;101474.88;5094137;28;20436;-67
2023/06/12 10:16:26;;;;;;;5.50;5.00;;;;;;;26.05;28.75;101468.88;5075237;28;20453;-67
2023/06/12 10:18:58;;;;;;;5.90;5.40;;;;;;;25.80;28.83;101469.13;5097498;28;20414;-66
2023/06/12 10:21:29;;;;;;;5.90;5.40;;;;;;;25.70;29.45;101466.44;5094981;28;20552;-69
2023/06/12 10:23:59;;;;;;;5.47;4.97;;;;;;;25.80;29.80;101466.38;5093244;28;20440;-68
2023/06/12 10:26:29;;;;;;;6.33;5.83;;;;;;;26.05;29.78;101465.28;5095715;28;20465;-68
2023/06/12 10:28:58;;;;;;;6.40;4.90;;;;;;;25.59;30.79;101481.47;5094666;28;20439;-68
2023/06/12 10:31:30;;;;;;;10.20;6.13;;;;;;;25.42;31.21;101474.34;5092958;28;20400;-68
2023/06/12 10:34:05;;;;;;;6.07;5.50;;;;;;;25.18;31.30;101459.53;5098158;28;20441;-68
2023/06/12 10:36:42;;;;;;;6.93;6.30;;;;;;;24.81;31.84;101453.63;5098993;28;20453;-68
2023/06/12 10:39:17;;;;;;;10.70;5.20;;;;;;;24.80;32.17;101440.88;5091438;28;20623;-68
2023/06/12 10:41:57;;;;;;;6.53;5.20;;;;;;;25.18;31.94;101458.72;5094170;28;20471;-68
2023/06/12 10:44:49;;;;;;;10.20;6.63;;;;;;;25.64;31.81;101450.97;5093126;28;20424;-68
2023/06/12 10:47:20;;;;;;;5.83;5.23;;;;;;;25.20;32.31;101454.56;5084232;28;20496;-67
2023/06/12 10:50:01;;;;;;;8.40;7.50;;;;;;;25.29;32.50;101450.06;5091699;28;20434;-67
2023/06/12 10:52:31;;;;;;;8.70;6.47;;;;;;;25.25;32.86;101453.69;5089367;28;20421;-67
2023/06/12 10:55:19;;;;;;;7.80;7.10;;;;;;;25.27;33.01;101452.28;5081876;28;20997;-68
2023/06/12 10:57:57;;;;;;;6.27;5.67;;;;;;;25.25;32.87;101457.31;5098214;28;20851;-67
2023/06/12 11:00:31;;;;;;;6.60;6.00;;;;;;;25.27;33.04;101449.50;5091114;28;20524;-66
2023/06/12 11:03:04;;;;;;;6.53;5.93;;;;;;;24.89;33.33;101441.97;5092341;28;20468;-68
2023/06/12 11:05:36;;;;;;;5.80;5.30;;;;;;;24.83;33.64;101446.72;5095103;28;20770;-67
2023/06/12 11:08:07;;;;;;;6.67;6.07;;;;;;;24.72;33.54;101441.50;5093609;28;20457;-68
2023/06/12 11:10:37;;;;;;;7.93;6.40;;;;;;;25.00;33.22;101421.44;5091024;28;20430;-67
2023/06/12 11:13:06;;;;;;;9.43;6.70;;;;;;;25.10;32.82;101430.53;5091283;28;20436;-69
2023/06/12 11:15:43;;;;;;;7.23;6.53;;;;;;;25.26;32.90;101431.25;5087133;28;20908;-67
2023/06/12 11:18:13;;;;;;;5.97;5.40;;;;;;;25.26;32.10;101425.72;5090381;28;20440;-68
2023/06/12 11:20:51;;;;;;;6.47;5.87;;;;;;;26.07;31.30;101416.75;5099970;28;20921;-67
2023/06/12 11:23:23;;;;;;;10.30;5.97;;;;;;;26.56;30.65;101412.88;5085588;28;20399;-68
2023/06/12 11:25:54;;;;;;;8.30;6.00;;;;;;;25.93;30.98;101421.31;5093173;28;20453;-68
2023/06/12 11:28:24;;;;;;;5.73;5.23;;;;;;;25.27;31.95;101412.69;5074630;28;20428;-69
2023/06/12 11:30:54;;;;;;;6.00;5.47;;;;;;;25.25;32.04;101410.22;5097544;28;20457;-68
2023/06/12 11:33:26;;;;;;;5.87;5.10;;;;;;;25.05;32.59;101410.34;5098329;28;20421;-68
2023/06/12 11:36:01;;;;;;;6.27;5.67;;;;;;;25.03;32.73;101413.38;5060543;22;21049;-69
2023/06/12 11:38:30;;;;;;;8.77;5.70;;;;;;;25.23;32.59;101412.44;5000118;28;20441;-71
2023/06/12 11:41:02;;;;;;;6.40;5.80;;;;;;;25.22;32.44;101413.56;4995491;28;20454;-70
2023/06/12 11:43:31;;;;;;;6.50;5.90;;;;;;;25.38;31.99;101409.56;5005538;28;20433;-70
2023/06/12 11:46:03;;;;;;;6.87;6.10;;;;;;;25.15;32.21;101406.69;4999864;28;20467;-70